createdAt,value
2022-12-15T00:01:42.517Z,96475.31
2022-12-15T00:04:27.891Z,96513.06
2022-12-15T00:07:13.038Z,96503.53
2022-12-15T00:09:57.803Z,96513.78
2022-12-15T00:12:42.855Z,96506.91
2022-12-15T00:15:28.221Z,96507.44
2022-12-15T00:18:13.954Z,96523.81
2022-12-15T00:20:59.300Z,96527.75
2022-12-15T00:23:44.990Z,96519.72
2022-12-15T00:26:30.503Z,96514.06
2022-12-15T00:29:15.257Z,96538.22
2022-12-15T00:32:00.292Z,96533.63
2022-12-15T00:34:45.299Z,96539.97
2022-12-15T00:37:30.490Z,96534.50
2022-12-15T00:40:04.631Z,96529.38
2022-12-15T00:42:31.234Z,96529.78
2022-12-15T00:44:59.152Z,96521.31
2022-12-15T00:47:25.799Z,96524.88
2022-12-15T00:50:11.054Z,96529.44
2022-12-15T00:52:55.779Z,96542.53
2022-12-15T00:55:40.677Z,96547.88
2022-12-15T00:58:25.504Z,96543.19
2022-12-15T01:01:10.417Z,96547.31
2022-12-15T01:03:55.263Z,96533.16
2022-12-15T01:06:41.072Z,96543.06
2022-12-15T01:09:28.985Z,96538.91
2022-12-15T01:12:14.395Z,96541.28
2022-12-15T01:14:59.955Z,96545.97
2022-12-15T01:17:45.144Z,96548.25
2022-12-15T01:20:34.779Z,96557.44
2022-12-15T01:23:01.322Z,96564.53
2022-12-15T01:25:28.024Z,96568.69
2022-12-15T01:27:54.933Z,96578.78
2022-12-15T01:30:26.432Z,96582.97
2022-12-15T01:32:53.500Z,96579.84
2022-12-15T01:35:21.078Z,96566.28
2022-12-15T01:37:49.962Z,96577.16
2022-12-15T01:40:37.696Z,96569.28
2022-12-15T01:43:04.350Z,96570.78
2022-12-15T01:45:30.665Z,96574.56
2022-12-15T01:48:03.351Z,96571.91
2022-12-15T01:50:32.753Z,96577.38
2022-12-15T01:52:59.491Z,96566.06
2022-12-15T01:55:30.230Z,96567.50
2022-12-15T01:58:03.064Z,96578.47
2022-12-15T02:00:35.565Z,96597.84
2022-12-15T02:03:09.189Z,96600.97
2022-12-15T02:05:36.766Z,96598.56
2022-12-15T02:08:04.927Z,96603.09
2022-12-15T02:11:00.933Z,96609.94
2022-12-15T02:13:52.100Z,96610.09
2022-12-15T02:16:43.509Z,96580.56
2022-12-15T02:19:43.640Z,96605.66
2022-12-15T02:22:47.249Z,96611.94
2022-12-15T02:25:22.859Z,96618.03
2022-12-15T02:28:01.364Z,96622.78
2022-12-15T02:31:11.542Z,96613.91
2022-12-15T02:33:46.299Z,96622.97
2022-12-15T02:36:23.430Z,96617.03
2022-12-15T02:38:49.854Z,96629.72
2022-12-15T02:41:39.917Z,96616.69
2022-12-15T02:44:17.469Z,96615.75
2022-12-15T02:47:15.012Z,96630.50
2022-12-15T02:50:42.074Z,96640.25
2022-12-15T02:53:23.705Z,96630.00
2022-12-15T02:56:08.347Z,96636.38
2022-12-15T02:59:15.183Z,96641.53
2022-12-15T03:01:51.984Z,96640.09
2022-12-15T03:04:19.698Z,96642.41
2022-12-15T03:07:00.567Z,96650.56
2022-12-15T03:09:27.772Z,96646.88
2022-12-15T03:11:54.575Z,96665.06
2022-12-15T03:14:21.152Z,96657.66
2022-12-15T03:16:47.738Z,96678.47
2022-12-15T03:19:14.228Z,96672.25
2022-12-15T03:21:40.639Z,96671.69
2022-12-15T03:24:07.358Z,96674.06
2022-12-15T03:26:33.757Z,96667.56
2022-12-15T03:29:00.358Z,96683.06
2022-12-15T03:31:26.932Z,96678.47
2022-12-15T03:33:53.811Z,96683.44
2022-12-15T03:36:20.471Z,96686.56
2022-12-15T03:38:47.060Z,96681.59
2022-12-15T03:41:13.457Z,96709.88
2022-12-15T03:43:39.884Z,96706.03
2022-12-15T03:46:06.315Z,96699.03
2022-12-15T03:48:33.445Z,96711.91
2022-12-15T03:50:59.844Z,96704.19
2022-12-15T03:53:26.381Z,96708.22
2022-12-15T03:55:52.791Z,96713.38
2022-12-15T03:58:19.606Z,96718.28
2022-12-15T04:00:45.984Z,96700.34
2022-12-15T04:03:12.636Z,96702.53
2022-12-15T04:05:39.307Z,96711.00
2022-12-15T04:08:05.808Z,96703.25
2022-12-15T04:10:35.315Z,96715.84
2022-12-15T04:13:12.064Z,96715.69
2022-12-15T04:15:39.896Z,96718.88
2022-12-15T04:18:10.065Z,96733.19
2022-12-15T04:20:38.062Z,96736.09
2022-12-15T04:23:07.634Z,96728.97
2022-12-15T04:25:53.496Z,96722.88
2022-12-15T04:28:38.869Z,96722.94
2022-12-15T04:31:40.412Z,96732.25
2022-12-15T04:34:29.268Z,96747.69
2022-12-15T04:37:14.785Z,96750.75
2022-12-15T04:40:05.303Z,96754.00
2022-12-15T04:42:52.469Z,96755.19
2022-12-15T04:45:41.329Z,96753.88
2022-12-15T04:48:26.829Z,96757.06
2022-12-15T04:51:12.027Z,96758.06
2022-12-15T04:53:57.137Z,96771.16
2022-12-15T04:56:41.954Z,96766.69
2022-12-15T04:59:26.861Z,96780.44
2022-12-15T05:02:11.793Z,96771.13
2022-12-15T05:04:56.984Z,96784.28
2022-12-15T05:07:43.957Z,96779.34
2022-12-15T05:10:29.253Z,96779.84
2022-12-15T05:13:14.357Z,96774.81
2022-12-15T05:15:59.187Z,96793.53
2022-12-15T05:18:44.382Z,96803.38
2022-12-15T05:21:29.300Z,96799.16
2022-12-15T05:24:14.352Z,96802.31
2022-12-15T05:27:03.354Z,96806.56
2022-12-15T05:29:48.288Z,96822.94
2022-12-15T05:32:14.674Z,96819.06
2022-12-15T05:34:41.877Z,96838.94
2022-12-15T05:37:08.266Z,96831.41
2022-12-15T05:39:38.117Z,96837.59
2022-12-15T05:42:04.769Z,96833.63
2022-12-15T05:44:31.159Z,96834.44
2022-12-15T05:46:57.551Z,96835.44
2022-12-15T05:49:23.942Z,96835.78
2022-12-15T05:51:50.357Z,96864.41
2022-12-15T05:54:18.652Z,96857.28
2022-12-15T05:56:46.832Z,96859.59
2022-12-15T05:59:17.198Z,96860.28
2022-12-15T06:01:43.818Z,96861.41
2022-12-15T06:04:12.745Z,96880.75
2022-12-15T06:06:40.014Z,96872.63
2022-12-15T06:09:06.479Z,96882.88
2022-12-15T06:11:32.899Z,96875.34
2022-12-15T06:13:59.316Z,96876.78
2022-12-15T06:16:28.169Z,96875.53
2022-12-15T06:19:00.001Z,96875.78
2022-12-15T06:21:29.460Z,96886.72
2022-12-15T06:23:56.825Z,96895.66
2022-12-15T06:26:30.873Z,96907.66
2022-12-15T06:28:59.462Z,96902.41
2022-12-15T06:31:26.669Z,96859.25
2022-12-15T06:34:00.920Z,96887.59
2022-12-15T06:36:28.685Z,96913.19
2022-12-15T06:39:05.589Z,96900.09
2022-12-15T06:41:32.569Z,96892.44
2022-12-15T06:44:00.025Z,96896.03
2022-12-15T06:46:28.100Z,96914.06
2022-12-15T06:48:55.407Z,96924.59
2022-12-15T06:51:23.631Z,96921.00
2022-12-15T06:53:53.934Z,96917.97
2022-12-15T06:56:28.926Z,96925.84
2022-12-15T06:58:59.608Z,96919.94
2022-12-15T07:01:26.765Z,96928.41
2022-12-15T07:03:54.190Z,96926.75
2022-12-15T07:06:21.084Z,96929.22
2022-12-15T07:08:53.753Z,96921.84
2022-12-15T07:11:21.994Z,96949.19
2022-12-15T07:13:52.776Z,96954.31
2022-12-15T07:16:21.070Z,96958.28
2022-12-15T07:18:47.544Z,96952.59
2022-12-15T07:21:14.140Z,96957.13
2022-12-15T07:23:53.930Z,96973.03
2022-12-15T07:26:20.949Z,96967.38
2022-12-15T07:28:47.389Z,96963.00
2022-12-15T07:31:13.889Z,96953.81
2022-12-15T07:33:40.533Z,96968.59
2022-12-15T07:36:08.436Z,96961.03
2022-12-15T07:38:35.583Z,96975.25
2022-12-15T07:41:04.372Z,96972.59
2022-12-15T07:43:31.523Z,96970.41
2022-12-15T07:45:58.941Z,96981.09
2022-12-15T07:48:25.502Z,96985.06
2022-12-15T07:51:02.941Z,96966.34
2022-12-15T07:53:33.578Z,97000.91
2022-12-15T07:56:09.576Z,96994.53
2022-12-15T07:58:37.452Z,96998.81
2022-12-15T08:01:07.003Z,96995.59
2022-12-15T08:03:35.731Z,96984.00
2022-12-15T08:06:12.214Z,96988.53
2022-12-15T08:08:39.671Z,96985.81
2022-12-15T08:11:07.894Z,96999.91
2022-12-15T08:16:21.434Z,96996.03
2022-12-15T08:18:49.032Z,96999.94
2022-12-15T08:21:15.654Z,96981.03
2022-12-15T08:23:42.084Z,96997.84
2022-12-15T08:26:12.059Z,96993.78
2022-12-15T08:28:39.961Z,96985.91
2022-12-15T08:31:08.798Z,96992.25
2022-12-15T08:33:36.195Z,96983.22
2022-12-15T08:36:05.334Z,96978.25
2022-12-15T08:38:33.376Z,96992.56
2022-12-15T08:41:11.290Z,96981.69
2022-12-15T08:43:44.038Z,96972.56
2022-12-15T08:46:14.981Z,96998.03
2022-12-15T08:48:42.122Z,96988.66
2022-12-15T08:51:09.722Z,96994.00
2022-12-15T08:53:36.502Z,96979.72
2022-12-15T08:56:12.177Z,97000.72
2022-12-15T08:58:39.599Z,97014.09
2022-12-15T09:01:08.516Z,97015.09
2022-12-15T09:03:36.404Z,97014.09
2022-12-15T09:06:04.623Z,97017.84
2022-12-15T09:08:31.528Z,97023.22
2022-12-15T09:10:58.810Z,97016.72
2022-12-15T09:13:25.919Z,97028.94
2022-12-15T09:16:09.436Z,97008.72
2022-12-15T09:18:36.562Z,96994.09
2022-12-15T09:21:05.234Z,96987.66
2022-12-15T09:23:32.286Z,96963.81
2022-12-15T09:26:07.406Z,96911.16
2022-12-15T09:28:34.788Z,96852.78
2022-12-15T09:31:09.508Z,96844.84
2022-12-15T09:33:36.797Z,96862.19
2022-12-15T09:36:04.699Z,96885.13
2022-12-15T09:38:33.852Z,97039.41
2022-12-15T09:41:15.329Z,97110.56
2022-12-15T09:43:52.441Z,97192.72
2022-12-15T09:46:34.871Z,97255.72
2022-12-15T09:49:06.393Z,97342.28
2022-12-15T09:51:39.216Z,97458.22
2022-12-15T09:54:06.771Z,97514.28
2022-12-15T09:56:42.433Z,97560.91
2022-12-15T09:59:29.034Z,97583.44
2022-12-15T10:02:13.982Z,97600.06
2022-12-15T10:04:47.403Z,97602.00
2022-12-15T10:07:39.562Z,97548.88
2022-12-15T10:10:51.098Z,97550.25
2022-12-15T10:13:27.374Z,97591.88
2022-12-15T10:16:00.724Z,97576.09
2022-12-15T10:18:37.274Z,97567.19
2022-12-15T10:21:03.982Z,97627.63
2022-12-15T10:23:34.266Z,97623.28
2022-12-15T10:26:21.027Z,97648.47
2022-12-15T10:29:13.091Z,97689.75
2022-12-15T10:31:53.244Z,97720.94
2022-12-15T10:34:33.669Z,97761.22
2022-12-15T10:37:00.330Z,97796.03
2022-12-15T10:39:42.815Z,97812.91
2022-12-15T10:42:11.492Z,97828.22
2022-12-15T10:44:41.395Z,97859.03
2022-12-15T10:47:31.582Z,97834.22
2022-12-15T10:50:24.774Z,97831.03
2022-12-15T10:52:51.921Z,97838.09
2022-12-15T10:55:38.189Z,97810.31
2022-12-15T10:58:17.697Z,97855.31
2022-12-15T11:00:46.612Z,97816.44
2022-12-15T11:03:26.448Z,97805.00
2022-12-15T11:05:55.205Z,97809.47
2022-12-15T11:08:22.979Z,97785.28
2022-12-15T11:11:14.220Z,97830.81
2022-12-15T11:13:41.965Z,97840.34
2022-12-15T11:16:17.173Z,97809.97
2022-12-15T11:18:56.461Z,97851.84
2022-12-15T11:21:27.858Z,97828.41
2022-12-15T11:24:13.747Z,97819.13
2022-12-15T11:26:56.702Z,97822.50
2022-12-15T11:29:23.560Z,97818.75
2022-12-15T11:31:52.323Z,97872.06
2022-12-15T11:34:25.975Z,97908.06
2022-12-15T11:37:12.515Z,97927.69
2022-12-15T11:40:08.611Z,97967.53
2022-12-15T11:43:00.663Z,97907.63
2022-12-15T11:45:47.425Z,97944.44
2022-12-15T11:48:19.481Z,97944.22
2022-12-15T11:50:56.093Z,97950.16
2022-12-15T11:53:41.071Z,97965.34
2022-12-15T11:56:33.855Z,97986.75
2022-12-15T11:59:28.031Z,97997.56
2022-12-15T12:02:18.212Z,97988.31
2022-12-15T12:05:01.313Z,97983.94
2022-12-15T12:07:45.123Z,97974.66
2022-12-15T12:10:20.849Z,97953.09
2022-12-15T12:13:30.615Z,97985.91
2022-12-15T12:16:29.231Z,97954.91
2022-12-15T12:19:02.701Z,97983.44
2022-12-15T12:21:36.933Z,98004.09
2022-12-15T12:24:30.355Z,97995.09
2022-12-15T12:27:16.592Z,98032.63
2022-12-15T12:29:51.237Z,98002.69
2022-12-15T12:32:36.924Z,97981.00
2022-12-15T12:35:30.848Z,97954.03
2022-12-15T12:38:07.672Z,98040.84
2022-12-15T12:40:51.231Z,98028.59
2022-12-15T12:43:40.235Z,98029.19
2022-12-15T12:46:15.081Z,98031.78
2022-12-15T12:48:44.128Z,98063.16
2022-12-15T12:51:38.991Z,98053.91
2022-12-15T12:54:37.044Z,98065.00
2022-12-15T12:57:12.563Z,98053.59
2022-12-15T12:59:43.717Z,98070.13
2022-12-15T13:02:22.304Z,98042.53
2022-12-15T13:05:05.032Z,98035.09
2022-12-15T13:07:39.065Z,98014.63
2022-12-15T13:10:18.095Z,98027.81
2022-12-15T13:12:53.567Z,98052.00
2022-12-15T13:15:29.314Z,98061.81
2022-12-15T13:18:04.803Z,97968.34
2022-12-15T13:20:33.695Z,97950.94
2022-12-15T13:23:22.121Z,97921.00
2022-12-15T13:25:57.517Z,97887.03
2022-12-15T13:28:43.147Z,97933.72
2022-12-15T13:31:21.775Z,97978.38
2022-12-15T13:33:51.213Z,97995.66
2022-12-15T13:36:36.631Z,98015.00
2022-12-15T13:39:23.247Z,97975.78
2022-12-15T13:42:32.589Z,97986.56
2022-12-15T13:44:48.689Z,97946.06
2022-12-15T13:47:22.329Z,97931.16
2022-12-15T13:50:02.265Z,97951.50
2022-12-15T13:53:18.798Z,97919.19
2022-12-15T13:55:52.480Z,97887.97
2022-12-15T13:58:21.613Z,97857.66
2022-12-15T14:00:51.942Z,97812.03
2022-12-15T14:03:18.415Z,97723.53
2022-12-15T14:05:50.142Z,97706.69
2022-12-15T14:08:19.002Z,97715.00
2022-12-15T14:10:50.865Z,97710.75
2022-12-15T14:13:24.400Z,97678.22
2022-12-15T14:15:53.023Z,97634.78
2022-12-15T14:18:32.322Z,97615.44
2022-12-15T14:21:00.880Z,97582.09
2022-12-15T14:23:52.509Z,97525.34
2022-12-15T14:26:30.920Z,97463.69
2022-12-15T14:29:06.062Z,97452.06
2022-12-15T14:31:33.055Z,97436.44
2022-12-15T14:34:11.964Z,97444.41
2022-12-15T14:36:41.770Z,97422.84
2022-12-15T14:39:19.485Z,97398.78
2022-12-15T14:41:50.552Z,97390.69
2022-12-15T14:44:31.537Z,97341.94
2022-12-15T14:47:08.426Z,97296.34
2022-12-15T14:49:45.681Z,97294.25
2022-12-15T14:52:30.430Z,97238.72
2022-12-15T14:54:59.849Z,97216.56
2022-12-15T14:57:29.200Z,97159.63
2022-12-15T14:59:55.790Z,97124.84
2022-12-15T15:02:26.910Z,97079.53
2022-12-15T15:05:04.071Z,97047.88
2022-12-15T15:07:35.213Z,97001.31
2022-12-15T15:10:03.853Z,96981.16
2022-12-15T15:12:47.134Z,96973.94
2022-12-15T15:15:19.528Z,96950.44
2022-12-15T15:17:52.826Z,96913.66
2022-12-15T15:20:27.035Z,96872.53
2022-12-15T15:23:22.895Z,96849.00
2022-12-15T15:25:50.697Z,96812.91
2022-12-15T15:28:20.055Z,96784.94
2022-12-15T15:30:56.430Z,96755.16
2022-12-15T15:33:27.186Z,96738.66
2022-12-15T15:35:59.557Z,96733.72
2022-12-15T15:38:35.022Z,96717.81
2022-12-15T15:41:15.557Z,96688.53
2022-12-15T15:43:42.666Z,96660.78
2022-12-15T15:46:18.158Z,96629.66
2022-12-15T15:48:48.804Z,96626.59
2022-12-15T15:51:15.296Z,96609.56
2022-12-15T15:53:41.846Z,96602.25
2022-12-15T15:56:16.105Z,96574.69
2022-12-15T15:58:46.637Z,96576.72
2022-12-15T16:01:13.850Z,96572.50
2022-12-15T16:03:40.936Z,96570.97
2022-12-15T16:06:19.996Z,96571.19
2022-12-15T16:08:53.761Z,96518.28
2022-12-15T16:11:22.149Z,96539.44
2022-12-15T16:13:48.905Z,96550.84
2022-12-15T16:16:19.052Z,96540.06
2022-12-15T16:18:46.032Z,96523.50
2022-12-15T16:21:16.803Z,96560.34
2022-12-15T16:23:45.977Z,96566.44
2022-12-15T16:26:16.645Z,96564.88
2022-12-15T16:28:43.309Z,96566.63
2022-12-15T16:31:24.581Z,96579.75
2022-12-15T16:33:51.117Z,96587.38
2022-12-15T16:36:17.727Z,96588.94
2022-12-15T16:38:44.377Z,96587.69
2022-12-15T16:41:15.474Z,96585.44
2022-12-15T16:43:47.940Z,96602.72
2022-12-15T16:46:15.404Z,96607.88
2022-12-15T16:48:42.849Z,96596.72
2022-12-15T16:51:18.231Z,96596.41
2022-12-15T16:53:45.560Z,96610.88
2022-12-15T16:56:14.324Z,96614.22
2022-12-15T16:58:41.775Z,96618.81
2022-12-15T17:01:10.056Z,96636.25
2022-12-15T17:03:36.687Z,96631.72
2022-12-15T17:06:06.494Z,96641.56
2022-12-15T17:08:44.898Z,96640.69
2022-12-15T17:11:18.394Z,96629.47
2022-12-15T17:13:48.199Z,96633.47
2022-12-15T17:16:14.937Z,96629.66
2022-12-15T17:18:42.970Z,96634.16
2022-12-15T17:21:15.796Z,96636.63
2022-12-15T17:23:44.790Z,96636.50
2022-12-15T17:26:27.459Z,96646.63
2022-12-15T17:28:55.187Z,96613.66
2022-12-15T17:31:23.741Z,96633.59
2022-12-15T17:33:50.369Z,96638.19
2022-12-15T17:36:27.633Z,96662.09
2022-12-15T17:39:03.201Z,96657.44
2022-12-15T17:41:58.046Z,96656.56
2022-12-15T17:44:36.946Z,96658.25
2022-12-15T17:47:06.179Z,96661.75
2022-12-15T17:49:36.023Z,96663.41
2022-12-15T17:52:18.998Z,96690.03
2022-12-15T17:54:45.441Z,96728.06
2022-12-15T17:57:12.505Z,96752.16
2022-12-15T17:59:39.028Z,96751.84
2022-12-15T18:02:06.032Z,96762.78
2022-12-15T18:04:32.591Z,96762.78
2022-12-15T18:07:02.148Z,96769.59
2022-12-15T18:09:29.381Z,96767.19
2022-12-15T18:11:55.785Z,96756.91
2022-12-15T18:14:22.949Z,96753.22
2022-12-15T18:16:49.749Z,96771.63
2022-12-15T18:19:16.232Z,96759.50
2022-12-15T18:21:42.898Z,96778.75
2022-12-15T18:24:17.297Z,96774.75
2022-12-15T18:26:44.115Z,96767.19
2022-12-15T18:29:17.632Z,96768.88
2022-12-15T18:31:46.933Z,96781.91
2022-12-15T18:34:18.278Z,96782.06
2022-12-15T18:36:44.984Z,96773.50
2022-12-15T18:39:26.252Z,96780.78
2022-12-15T18:41:55.108Z,96753.97
2022-12-15T18:44:26.350Z,96763.53
2022-12-15T18:46:53.294Z,96762.25
2022-12-15T18:49:22.199Z,96776.44
2022-12-15T18:51:48.784Z,96772.88
2022-12-15T18:54:21.276Z,96774.47
2022-12-15T18:56:47.979Z,96774.66
2022-12-15T18:59:16.438Z,96778.88
2022-12-15T19:01:48.180Z,96782.88
2022-12-15T19:04:15.320Z,96766.16
2022-12-15T19:06:42.342Z,96769.56
2022-12-15T19:09:18.651Z,96779.44
2022-12-15T19:12:16.559Z,96750.03
2022-12-15T19:14:43.863Z,96764.84
2022-12-15T19:17:36.693Z,96778.13
2022-12-15T19:20:24.681Z,96773.91
2022-12-15T19:22:52.196Z,96765.94
2022-12-15T19:25:26.637Z,96764.50
2022-12-15T19:27:59.683Z,96768.91
2022-12-15T19:30:36.941Z,96760.44
2022-12-15T19:33:07.964Z,96772.25
2022-12-15T19:35:34.779Z,96755.94
2022-12-15T19:38:03.177Z,96760.28
2022-12-15T19:40:32.457Z,96766.22
2022-12-15T19:43:00.272Z,96747.09
2022-12-15T19:45:30.062Z,96757.44
2022-12-15T19:47:56.616Z,96772.44
2022-12-15T19:50:27.458Z,96777.28
2022-12-15T19:53:02.254Z,96778.19
2022-12-15T19:55:32.973Z,96771.47
2022-12-15T19:57:59.790Z,96774.88
2022-12-15T20:00:27.301Z,96765.19
2022-12-15T20:02:55.017Z,96769.50
2022-12-15T20:05:24.494Z,96770.34
2022-12-15T20:07:54.914Z,96752.13
2022-12-15T20:10:31.771Z,96766.25
2022-12-15T20:13:00.192Z,96754.34
2022-12-15T20:15:26.688Z,96761.66
2022-12-15T20:17:57.216Z,96758.84
2022-12-15T20:20:27.035Z,96748.91
2022-12-15T20:22:56.559Z,96739.34
2022-12-15T20:25:27.155Z,96750.28
2022-12-15T20:27:54.238Z,96740.31
2022-12-15T20:30:26.831Z,96737.16
2022-12-15T20:32:54.630Z,96744.13
2022-12-15T20:35:22.498Z,96746.34
2022-12-15T20:37:50.093Z,96736.56
2022-12-15T20:40:28.190Z,96732.03
2022-12-15T20:42:56.068Z,96729.00
2022-12-15T20:45:26.690Z,96728.44
2022-12-15T20:47:55.783Z,96731.44
2022-12-15T20:50:49.028Z,96727.56
2022-12-15T20:53:25.320Z,96727.06
2022-12-15T20:55:53.731Z,96742.84
2022-12-15T20:58:21.017Z,96731.19
2022-12-15T21:00:49.318Z,96741.03
2022-12-15T21:03:19.818Z,96727.81
2022-12-15T21:05:50.611Z,96741.16
2022-12-15T21:08:25.930Z,96719.91
2022-12-15T21:10:54.167Z,96727.69
2022-12-15T21:13:31.543Z,96721.25
2022-12-15T21:15:58.334Z,96715.16
2022-12-15T21:21:29.446Z,96681.94
2022-12-15T21:23:57.793Z,96723.25
2022-12-15T21:26:28.972Z,96723.97
2022-12-15T21:28:59.067Z,96725.66
2022-12-15T21:31:26.084Z,96729.31
2022-12-15T21:33:52.724Z,96695.28
2022-12-15T21:36:22.001Z,96696.56
2022-12-15T21:38:51.813Z,96708.25
2022-12-15T21:41:22.089Z,96710.16
2022-12-15T21:43:49.614Z,96705.56
2022-12-15T21:46:20.537Z,96704.75
2022-12-15T21:49:08.329Z,96713.97
2022-12-15T21:51:37.709Z,96706.56
2022-12-15T21:54:05.524Z,96694.34
2022-12-15T21:56:32.157Z,96663.31
2022-12-15T21:58:59.054Z,96705.34
2022-12-15T22:01:29.761Z,96702.44
2022-12-15T22:03:58.502Z,96698.59
2022-12-15T22:06:27.842Z,96721.19
2022-12-15T22:09:00.941Z,96728.38
2022-12-15T22:11:30.051Z,96721.19
2022-12-15T22:13:58.716Z,96724.47
2022-12-15T22:16:25.345Z,96729.97
2022-12-15T22:18:56.837Z,96721.28
2022-12-15T22:21:24.259Z,96749.84
2022-12-15T22:23:51.279Z,96745.38
2022-12-15T22:26:31.198Z,96739.09
2022-12-15T22:29:00.981Z,96729.78
2022-12-15T22:31:28.248Z,96725.16
2022-12-15T22:33:55.709Z,96732.22
2022-12-15T22:36:22.141Z,96710.69
2022-12-15T22:38:48.543Z,96715.78
2022-12-15T22:41:22.306Z,96695.97
2022-12-15T22:43:55.019Z,96705.72
2022-12-15T22:46:24.055Z,96711.19
2022-12-15T22:48:52.936Z,96714.88
2022-12-15T22:51:21.748Z,96698.84
2022-12-15T22:53:49.227Z,96708.00
2022-12-15T22:56:27.723Z,96704.97
2022-12-15T22:59:00.841Z,96691.97
2022-12-15T23:01:27.972Z,96695.75
2022-12-15T23:03:54.646Z,96663.38
2022-12-15T23:06:23.605Z,96671.81
2022-12-15T23:08:55.994Z,96652.41
2022-12-15T23:11:39.651Z,96651.00
2022-12-15T23:14:09.592Z,96659.13
2022-12-15T23:16:37.310Z,96663.53
2022-12-15T23:19:04.542Z,96642.53
2022-12-15T23:21:31.100Z,96649.47
2022-12-15T23:23:57.833Z,96650.19
2022-12-15T23:26:26.027Z,96665.84
2022-12-15T23:28:53.860Z,96644.94
2022-12-15T23:31:22.095Z,96609.81
2022-12-15T23:33:48.601Z,96649.00
2022-12-15T23:36:16.135Z,96647.38
2022-12-15T23:38:42.848Z,96643.41
2022-12-15T23:41:15.672Z,96652.69
2022-12-15T23:43:42.096Z,96621.16
2022-12-15T23:46:08.677Z,96633.88
2022-12-15T23:48:38.601Z,96644.19
2022-12-15T23:51:08.678Z,96651.56
2022-12-15T23:53:36.397Z,96660.47
2022-12-15T23:56:10.780Z,96667.28
2022-12-15T23:58:39.416Z,96664.47
